createdAt,value
2019-02-28T00:01:43.171Z,25.97
2019-02-28T00:04:20.881Z,26.00
2019-02-28T00:06:58.507Z,26.23
2019-02-28T00:09:35.522Z,25.00
2019-02-28T00:12:13.710Z,25.10
2019-02-28T00:14:51.102Z,24.65
2019-02-28T00:17:28.219Z,24.32
2019-02-28T00:20:06.840Z,23.75
2019-02-28T00:22:48.410Z,24.92
2019-02-28T00:25:23.514Z,24.23
2019-02-28T00:28:00.679Z,24.43
2019-02-28T00:30:40.772Z,22.55
2019-02-28T00:33:17.206Z,24.87
2019-02-28T00:35:54.292Z,25.95
2019-02-28T00:38:31.287Z,26.17
2019-02-28T00:41:09.497Z,27.65
2019-02-28T00:43:47.826Z,25.60
2019-02-28T00:46:25.121Z,25.90
2019-02-28T00:49:02.235Z,28.25
2019-02-28T00:51:39.484Z,28.42
2019-02-28T00:54:28.426Z,27.77
2019-02-28T00:57:17.262Z,27.07
2019-02-28T01:00:05.130Z,26.50
2019-02-28T01:02:42.604Z,27.58
2019-02-28T01:05:19.619Z,26.90
2019-02-28T01:07:57.008Z,28.32
2019-02-28T01:10:38.753Z,26.30
2019-02-28T01:13:13.684Z,27.87
2019-02-28T01:15:52.750Z,27.77
2019-02-28T01:18:34.394Z,26.80
2019-02-28T01:21:12.197Z,27.37
2019-02-28T01:23:49.398Z,26.67
2019-02-28T01:26:26.233Z,26.30
2019-02-28T01:29:04.595Z,27.00
2019-02-28T01:31:42.555Z,27.07
2019-02-28T01:34:20.428Z,29.12
2019-02-28T01:36:57.515Z,27.20
2019-02-28T01:39:34.873Z,27.80
2019-02-28T01:42:12.731Z,28.65
2019-02-28T01:44:49.978Z,29.37
2019-02-28T01:47:27.051Z,27.77
2019-02-28T01:50:04.451Z,29.27
2019-02-28T01:52:45.664Z,29.32
2019-02-28T01:55:20.279Z,32.23
2019-02-28T01:57:57.641Z,33.55
2019-02-28T02:00:40.486Z,33.10
2019-02-28T02:03:17.831Z,33.10
2019-02-28T02:05:55.367Z,31.97
2019-02-28T02:08:32.335Z,31.87
2019-02-28T02:11:10.135Z,34.85
2019-02-28T02:13:47.289Z,33.08
2019-02-28T02:16:27.648Z,34.25
2019-02-28T02:19:04.627Z,36.20
2019-02-28T02:21:41.848Z,34.35
2019-02-28T02:24:18.890Z,35.30
2019-02-28T02:26:56.069Z,36.30
2019-02-28T02:29:36.405Z,35.63
2019-02-28T02:32:12.170Z,37.40
2019-02-28T02:34:49.333Z,37.30
2019-02-28T02:37:30.117Z,36.48
2019-02-28T02:40:05.330Z,38.42
2019-02-28T02:42:47.588Z,39.20
2019-02-28T02:45:21.189Z,38.78
2019-02-28T02:47:58.329Z,40.73
2019-02-28T02:50:36.828Z,41.70
2019-02-28T02:53:13.856Z,41.45
2019-02-28T02:55:51.371Z,44.77
2019-02-28T02:58:28.920Z,43.48
2019-02-28T03:01:07.053Z,45.38
2019-02-28T03:03:45.143Z,45.92
2019-02-28T03:06:22.185Z,45.65
2019-02-28T03:08:59.311Z,45.35
2019-02-28T03:11:36.442Z,47.00
2019-02-28T03:14:16.359Z,45.00
2019-02-28T03:16:53.367Z,46.13
2019-02-28T03:19:33.812Z,45.83
2019-02-28T03:22:09.088Z,47.55
2019-02-28T03:24:50.696Z,46.70
2019-02-28T03:27:25.012Z,46.35
2019-02-28T03:30:02.144Z,45.95
2019-02-28T03:32:42.257Z,48.15
2019-02-28T03:35:17.992Z,48.42
2019-02-28T03:37:55.186Z,47.23
2019-02-28T03:40:32.202Z,48.60
2019-02-28T03:43:09.257Z,49.70
2019-02-28T03:45:46.444Z,49.42
2019-02-28T03:48:23.734Z,48.75
2019-02-28T03:51:00.884Z,50.50
2019-02-28T03:53:38.004Z,48.55
2019-02-28T03:56:16.038Z,52.05
2019-02-28T03:58:53.038Z,54.80
2019-02-28T04:01:30.197Z,50.65
2019-02-28T04:04:12.218Z,52.08
2019-02-28T04:06:46.552Z,50.67
2019-02-28T04:09:23.661Z,51.80
2019-02-28T04:12:07.232Z,54.75
2019-02-28T04:14:55.489Z,51.80
2019-02-28T04:17:32.886Z,55.12
2019-02-28T04:20:09.969Z,56.45
2019-02-28T04:22:48.642Z,56.70
2019-02-28T04:25:25.767Z,55.12
2019-02-28T04:28:03.376Z,54.23
2019-02-28T04:30:43.752Z,54.40
2019-02-28T04:33:19.148Z,55.65
2019-02-28T04:36:00.226Z,56.37
2019-02-28T04:38:35.447Z,55.88
2019-02-28T04:41:13.964Z,56.13
2019-02-28T04:43:51.204Z,55.48
2019-02-28T04:46:31.778Z,54.40
2019-02-28T04:49:10.573Z,54.35
2019-02-28T04:51:47.852Z,56.30
2019-02-28T04:54:27.810Z,53.65
2019-02-28T04:57:04.120Z,54.95
2019-02-28T04:59:41.621Z,53.48
2019-02-28T05:02:19.934Z,52.45
2019-02-28T05:04:57.373Z,51.98
2019-02-28T05:07:34.916Z,55.17
2019-02-28T05:10:13.694Z,52.88
2019-02-28T05:12:50.876Z,52.70
2019-02-28T05:15:28.010Z,57.95
2019-02-28T05:18:17.861Z,56.48
2019-02-28T05:20:54.878Z,54.93
2019-02-28T05:23:35.796Z,57.93
2019-02-28T05:26:11.050Z,57.20
2019-02-28T05:29:00.374Z,57.55
2019-02-28T05:31:48.934Z,58.68
2019-02-28T05:34:25.991Z,58.73
2019-02-28T05:37:48.070Z,61.35
2019-02-28T05:40:22.355Z,59.80
2019-02-28T05:42:59.594Z,64.22
2019-02-28T05:45:36.731Z,66.05
2019-02-28T05:48:13.883Z,62.88
2019-02-28T05:50:53.318Z,66.05
2019-02-28T05:53:29.722Z,65.35
2019-02-28T05:56:07.286Z,68.67
2019-02-28T05:58:44.673Z,68.83
2019-02-28T06:01:22.190Z,73.07
2019-02-28T06:04:02.690Z,69.87
2019-02-28T06:06:39.005Z,63.98
2019-02-28T06:09:16.665Z,68.00
2019-02-28T06:11:53.919Z,70.83
2019-02-28T06:14:32.504Z,70.92
2019-02-28T06:17:09.513Z,66.90
2019-02-28T06:19:47.272Z,76.72
2019-02-28T06:22:24.635Z,69.10
2019-02-28T06:25:02.153Z,73.05
2019-02-28T06:27:41.856Z,76.12
2019-02-28T06:30:22.445Z,77.42
2019-02-28T06:33:00.416Z,74.55
2019-02-28T06:35:37.611Z,75.35
2019-02-28T06:38:16.237Z,75.08
2019-02-28T06:40:53.535Z,77.30
2019-02-28T06:43:31.208Z,74.05
2019-02-28T06:46:09.379Z,74.40
2019-02-28T06:48:46.726Z,72.60
2019-02-28T06:51:23.878Z,69.80
2019-02-28T06:54:01.228Z,74.90
2019-02-28T06:56:39.140Z,73.75
2019-02-28T06:59:16.339Z,73.85
2019-02-28T07:01:56.617Z,73.22
2019-02-28T07:04:32.250Z,74.37
2019-02-28T07:07:10.269Z,75.67
2019-02-28T07:09:48.224Z,76.42
2019-02-28T07:12:29.816Z,73.05
2019-02-28T07:15:07.225Z,75.45
2019-02-28T07:17:46.609Z,77.87
2019-02-28T07:20:23.120Z,76.92
2019-02-28T07:23:00.767Z,77.32
2019-02-28T07:25:38.192Z,80.87
2019-02-28T07:28:15.612Z,74.50
2019-02-28T07:30:53.675Z,75.62
2019-02-28T07:33:31.010Z,76.90
2019-02-28T07:36:09.351Z,74.92
2019-02-28T07:38:47.915Z,77.20
2019-02-28T07:41:26.766Z,74.77
2019-02-28T07:44:04.241Z,74.27
2019-02-28T07:46:43.791Z,71.95
2019-02-28T07:49:21.472Z,74.15
2019-02-28T07:51:58.391Z,70.97
2019-02-28T07:54:39.415Z,67.12
2019-02-28T07:57:17.160Z,67.20
2019-02-28T08:01:00.142Z,61.02
2019-02-28T08:03:37.313Z,68.70
2019-02-28T08:06:14.824Z,62.20
2019-02-28T08:08:52.222Z,59.20
2019-02-28T08:11:29.479Z,59.42
2019-02-28T08:14:09.194Z,60.75
2019-02-28T08:16:46.441Z,58.23
2019-02-28T08:19:27.236Z,56.45
2019-02-28T08:22:03.962Z,56.70
2019-02-28T08:24:41.336Z,55.78
2019-02-28T08:27:18.462Z,55.45
2019-02-28T08:29:56.136Z,54.10
2019-02-28T08:32:33.917Z,55.20
2019-02-28T08:35:12.197Z,54.93
2019-02-28T08:37:55.569Z,53.20
2019-02-28T08:40:28.127Z,52.45
2019-02-28T08:43:07.102Z,53.38
2019-02-28T08:45:45.154Z,52.53
2019-02-28T08:48:22.421Z,53.68
2019-02-28T08:50:59.317Z,52.55
2019-02-28T08:53:36.817Z,52.38
2019-02-28T08:56:14.906Z,52.13
2019-02-28T08:58:52.360Z,51.40
2019-02-28T09:01:29.410Z,52.10
2019-02-28T09:04:06.662Z,48.87
2019-02-28T09:06:43.701Z,49.73
2019-02-28T09:09:20.957Z,49.40
2019-02-28T09:11:58.923Z,50.60
2019-02-28T09:14:36.872Z,50.43
2019-02-28T09:17:15.574Z,49.23
2019-02-28T09:19:52.625Z,47.75
2019-02-28T09:22:30.226Z,47.80
2019-02-28T09:25:09.545Z,48.48
2019-02-28T09:27:46.457Z,49.27
2019-02-28T09:30:29.629Z,49.60
2019-02-28T09:33:05.644Z,48.50
2019-02-28T09:35:46.349Z,47.35
2019-02-28T09:38:21.621Z,47.67
2019-02-28T09:41:01.349Z,43.23
2019-02-28T09:43:38.375Z,43.75
2019-02-28T09:46:16.356Z,45.80
2019-02-28T09:48:54.110Z,43.58
2019-02-28T09:51:32.752Z,46.05
2019-02-28T09:54:10.144Z,42.80
2019-02-28T09:56:47.193Z,43.28
2019-02-28T09:59:24.174Z,40.60
2019-02-28T10:02:04.925Z,41.10
2019-02-28T10:04:40.074Z,40.00
2019-02-28T10:07:17.076Z,40.35
2019-02-28T10:09:54.726Z,40.63
2019-02-28T10:12:32.010Z,36.05
2019-02-28T10:15:11.298Z,38.88
2019-02-28T10:17:48.561Z,39.73
2019-02-28T10:20:28.190Z,36.15
2019-02-28T10:23:05.353Z,35.85
2019-02-28T10:25:43.701Z,34.70
2019-02-28T10:28:21.526Z,33.38
2019-02-28T10:30:59.322Z,34.15
2019-02-28T10:33:37.552Z,32.78
2019-02-28T10:36:15.078Z,33.58
2019-02-28T10:38:52.554Z,32.70
2019-02-28T10:41:31.221Z,30.17
2019-02-28T10:44:08.442Z,31.17
2019-02-28T10:46:45.999Z,29.82
2019-02-28T10:49:24.085Z,29.37
2019-02-28T10:52:02.545Z,26.80
2019-02-28T10:54:39.676Z,23.70
2019-02-28T10:57:17.512Z,21.65
2019-02-28T10:59:55.234Z,23.12
2019-02-28T11:02:33.244Z,22.65
2019-02-28T11:05:18.850Z,21.50
2019-02-28T11:07:54.807Z,21.40
2019-02-28T11:10:35.491Z,19.55
2019-02-28T11:13:15.396Z,17.87
2019-02-28T11:15:52.413Z,18.07
2019-02-28T11:18:29.875Z,14.68
2019-02-28T11:21:07.297Z,16.05
2019-02-28T11:23:49.072Z,15.03
2019-02-28T11:26:26.101Z,15.13
2019-02-28T11:29:03.899Z,16.07
2019-02-28T11:31:41.578Z,15.55
2019-02-28T11:34:18.850Z,14.98
2019-02-28T11:36:57.295Z,13.93
2019-02-28T11:39:36.022Z,13.30
2019-02-28T11:42:13.434Z,12.18
2019-02-28T11:44:50.493Z,12.98
2019-02-28T11:47:28.334Z,12.00
2019-02-28T11:50:07.789Z,12.15
2019-02-28T11:52:45.111Z,10.90
2019-02-28T11:55:22.552Z,11.60
2019-02-28T11:57:59.924Z,11.18
2019-02-28T12:00:37.470Z,11.68
2019-02-28T12:03:14.610Z,9.95
2019-02-28T12:05:51.676Z,9.93
2019-02-28T12:08:28.782Z,10.10
2019-02-28T12:11:05.920Z,9.20
2019-02-28T12:13:43.527Z,8.50
2019-02-28T12:16:20.721Z,9.50
2019-02-28T12:18:58.396Z,9.43
2019-02-28T12:21:37.990Z,9.63
2019-02-28T12:24:14.959Z,9.20
2019-02-28T12:26:52.715Z,8.30
2019-02-28T12:29:31.152Z,10.55
2019-02-28T12:32:08.792Z,7.80
2019-02-28T12:34:47.018Z,8.53
2019-02-28T12:37:24.418Z,7.95
2019-02-28T12:40:01.451Z,6.97
2019-02-28T12:42:39.379Z,7.45
2019-02-28T12:45:21.178Z,8.00
2019-02-28T12:47:58.525Z,7.28
2019-02-28T12:50:36.114Z,6.65
2019-02-28T12:53:13.505Z,6.35
2019-02-28T12:55:50.688Z,5.58
2019-02-28T12:58:36.116Z,4.55
2019-02-28T13:01:07.475Z,4.30
2019-02-28T13:03:44.779Z,4.30
2019-02-28T13:06:23.692Z,3.55
2019-02-28T13:09:00.719Z,4.00
2019-02-28T13:11:39.699Z,4.12
2019-02-28T13:14:16.673Z,5.10
2019-02-28T13:16:54.614Z,3.50
2019-02-28T13:19:32.490Z,2.92
2019-02-28T13:22:23.319Z,3.35
2019-02-28T13:25:00.380Z,4.62
2019-02-28T13:27:37.433Z,3.30
2019-02-28T13:30:19.633Z,3.05
2019-02-28T13:32:57.068Z,3.33
2019-02-28T13:35:34.202Z,3.40
2019-02-28T13:38:17.632Z,2.92
2019-02-28T13:40:50.259Z,3.27
2019-02-28T13:43:27.445Z,3.77
2019-02-28T13:46:04.714Z,3.25
2019-02-28T13:48:41.791Z,3.95
2019-02-28T13:51:19.406Z,3.45
2019-02-28T13:53:57.721Z,3.37
2019-02-28T13:56:34.591Z,3.10
2019-02-28T13:59:12.649Z,3.30
2019-02-28T14:01:52.029Z,3.77
2019-02-28T14:04:29.185Z,3.55
2019-02-28T14:07:07.509Z,2.95
2019-02-28T14:09:45.141Z,3.02
2019-02-28T14:12:22.502Z,3.27
2019-02-28T14:14:59.777Z,3.12
2019-02-28T14:17:36.936Z,3.85
2019-02-28T14:20:14.262Z,4.87
2019-02-28T14:22:51.567Z,3.80
2019-02-28T14:25:28.640Z,3.77
2019-02-28T14:28:05.612Z,3.25
2019-02-28T14:30:42.754Z,3.45
2019-02-28T14:33:20.763Z,3.30
2019-02-28T14:35:58.236Z,3.75
2019-02-28T14:38:35.740Z,3.65
2019-02-28T14:41:13.375Z,3.87
2019-02-28T14:43:52.840Z,3.40
2019-02-28T14:46:29.742Z,3.33
2019-02-28T14:49:07.335Z,3.98
2019-02-28T14:51:44.276Z,4.25
2019-02-28T14:54:21.902Z,4.33
2019-02-28T14:57:00.248Z,4.83
2019-02-28T14:59:37.427Z,4.17
2019-02-28T15:02:14.356Z,4.92
2019-02-28T15:04:51.461Z,4.90
2019-02-28T15:07:28.612Z,4.08
2019-02-28T15:10:07.464Z,3.92
2019-02-28T15:12:44.475Z,3.90
2019-02-28T15:15:21.649Z,4.65
2019-02-28T15:18:01.226Z,4.60
2019-02-28T15:20:38.287Z,4.40
2019-02-28T15:23:15.472Z,3.72
2019-02-28T15:25:54.056Z,4.10
2019-02-28T15:28:32.230Z,5.22
2019-02-28T15:31:09.706Z,4.30
2019-02-28T15:33:46.804Z,4.78
2019-02-28T15:36:24.986Z,2.77
2019-02-28T15:39:02.097Z,3.45
2019-02-28T15:41:46.443Z,3.42
2019-02-28T15:44:25.605Z,3.45
2019-02-28T15:47:02.619Z,3.60
2019-02-28T15:49:51.671Z,4.78
2019-02-28T15:52:29.192Z,5.10
2019-02-28T15:55:08.657Z,5.33
2019-02-28T15:57:46.454Z,5.80
2019-02-28T16:00:25.565Z,5.10
2019-02-28T16:03:03.119Z,4.75
2019-02-28T16:05:44.044Z,5.25
2019-02-28T16:08:18.928Z,5.97
2019-02-28T16:10:56.306Z,6.90
2019-02-28T16:13:33.561Z,7.17
2019-02-28T16:16:10.906Z,7.67
2019-02-28T16:18:48.143Z,7.53
2019-02-28T16:21:25.792Z,7.67
2019-02-28T16:24:05.077Z,8.50
2019-02-28T16:26:42.045Z,9.23
2019-02-28T16:29:20.494Z,9.68
2019-02-28T16:31:57.695Z,9.45
2019-02-28T16:34:34.946Z,9.08
2019-02-28T16:37:12.256Z,9.65
2019-02-28T16:39:51.286Z,7.92
2019-02-28T16:42:28.281Z,9.38
2019-02-28T16:45:06.834Z,10.90
2019-02-28T16:47:43.918Z,11.63
2019-02-28T16:50:20.945Z,11.25
2019-02-28T16:52:59.173Z,13.00
2019-02-28T16:55:39.774Z,14.25
2019-02-28T16:58:18.669Z,16.17
2019-02-28T17:00:55.835Z,19.07
2019-02-28T17:03:34.405Z,18.87
2019-02-28T17:06:11.557Z,19.82
2019-02-28T17:09:04.816Z,19.50
2019-02-28T17:11:51.206Z,22.52
2019-02-28T17:14:28.793Z,22.52
2019-02-28T17:17:16.403Z,21.20
2019-02-28T17:19:54.529Z,20.43
2019-02-28T17:22:31.613Z,21.35
2019-02-28T17:25:09.358Z,22.45
2019-02-28T17:27:52.715Z,21.68
2019-02-28T17:30:55.018Z,22.93
2019-02-28T17:33:32.519Z,30.72
2019-02-28T17:36:11.731Z,26.07
2019-02-28T17:38:49.711Z,26.48
2019-02-28T17:41:27.693Z,27.00
2019-02-28T17:44:58.273Z,25.05
2019-02-28T17:48:22.579Z,23.35
2019-02-28T17:51:45.354Z,22.60
2019-02-28T17:54:45.177Z,21.80
2019-02-28T17:58:00.226Z,21.80
2019-02-28T18:01:25.348Z,21.27
2019-02-28T18:04:40.311Z,20.45
2019-02-28T18:07:40.096Z,21.12
2019-02-28T18:10:41.986Z,20.02
2019-02-28T18:13:34.212Z,23.87
2019-02-28T18:16:35.875Z,22.52
2019-02-28T18:20:09.652Z,23.47
2019-02-28T18:23:33.551Z,25.70
2019-02-28T18:26:38.746Z,24.98
2019-02-28T18:29:40.369Z,22.80
2019-02-28T18:34:56.229Z,24.87
2019-02-28T18:37:33.114Z,23.90
2019-02-28T18:40:10.931Z,26.17
2019-02-28T18:42:51.454Z,25.97
2019-02-28T18:45:28.087Z,28.05
2019-02-28T18:48:11.221Z,28.57
2019-02-28T18:50:47.700Z,25.08
2019-02-28T18:53:24.675Z,25.92
2019-02-28T18:56:01.806Z,26.60
2019-02-28T18:58:39.522Z,24.23
2019-02-28T19:01:16.800Z,21.45
2019-02-28T19:04:06.922Z,22.58
2019-02-28T19:06:45.728Z,21.68
2019-02-28T19:09:24.847Z,21.37
2019-02-28T19:12:01.774Z,21.48
2019-02-28T19:14:39.035Z,19.73
2019-02-28T19:17:16.429Z,20.75
2019-02-28T19:19:54.955Z,20.25
2019-02-28T19:22:32.138Z,21.17
2019-02-28T19:25:09.748Z,21.33
2019-02-28T19:27:46.820Z,24.70
2019-02-28T19:30:24.493Z,25.23
2019-02-28T19:33:01.714Z,27.35
2019-02-28T19:35:40.134Z,27.48
2019-02-28T19:38:17.226Z,25.27
2019-02-28T19:40:55.814Z,26.17
2019-02-28T19:43:33.161Z,25.97
2019-02-28T19:46:10.623Z,25.20
2019-02-28T19:48:47.833Z,24.60
2019-02-28T19:51:25.511Z,22.15
2019-02-28T19:54:02.677Z,23.12
2019-02-28T19:56:39.867Z,22.73
2019-02-28T19:59:17.520Z,22.07
2019-02-28T20:01:54.989Z,21.10
2019-02-28T20:04:32.717Z,21.65
2019-02-28T20:07:10.636Z,20.72
2019-02-28T20:09:47.758Z,20.85
2019-02-28T20:12:25.341Z,20.43
2019-02-28T20:15:02.910Z,19.35
2019-02-28T20:17:41.287Z,20.50
2019-02-28T20:20:19.532Z,20.00
2019-02-28T20:22:56.999Z,21.75
2019-02-28T20:25:39.036Z,21.10
2019-02-28T20:28:31.106Z,21.15
2019-02-28T20:31:22.372Z,19.75
2019-02-28T20:34:03.692Z,21.63
2019-02-28T20:39:21.374Z,21.42
2019-02-28T20:41:59.715Z,20.35
2019-02-28T20:44:40.148Z,21.10
2019-02-28T20:47:19.249Z,20.72
2019-02-28T20:49:58.745Z,21.20
2019-02-28T20:52:43.206Z,22.98
2019-02-28T20:55:22.956Z,24.00
2019-02-28T20:58:01.006Z,26.17
2019-02-28T21:00:40.594Z,25.45
2019-02-28T21:03:18.410Z,23.77
2019-02-28T21:05:57.610Z,24.12
2019-02-28T21:08:36.220Z,20.80
2019-02-28T21:11:17.090Z,20.15
2019-02-28T21:13:55.746Z,20.02
2019-02-28T21:16:35.338Z,20.72
2019-02-28T21:19:14.420Z,21.00
2019-02-28T21:21:54.187Z,21.60
2019-02-28T21:24:31.951Z,22.87
2019-02-28T21:27:09.805Z,23.20
2019-02-28T21:29:50.652Z,22.65
2019-02-28T21:32:30.580Z,21.80
2019-02-28T21:35:09.209Z,23.27
2019-02-28T21:38:02.436Z,23.05
2019-02-28T21:40:40.971Z,21.15
2019-02-28T21:43:21.463Z,22.25
2019-02-28T21:46:01.299Z,23.18
2019-02-28T21:48:40.209Z,23.25
2019-02-28T21:51:18.956Z,23.77
2019-02-28T21:53:57.035Z,21.57
2019-02-28T21:56:36.541Z,21.37
2019-02-28T21:59:16.699Z,20.62
2019-02-28T22:01:56.280Z,19.95
2019-02-28T22:04:51.784Z,19.77
2019-02-28T22:07:31.193Z,19.12
2019-02-28T22:10:12.121Z,17.35
2019-02-28T22:12:54.428Z,18.07
2019-02-28T22:15:36.227Z,18.62
2019-02-28T22:18:15.229Z,18.65
2019-02-28T22:20:53.429Z,17.15
2019-02-28T22:23:31.770Z,18.02
2019-02-28T22:26:13.203Z,17.02
2019-02-28T22:28:52.561Z,16.05
2019-02-28T22:31:47.751Z,18.52
2019-02-28T22:34:31.384Z,20.30
2019-02-28T22:37:09.826Z,19.65
2019-02-28T22:39:50.218Z,20.97
2019-02-28T22:42:29.084Z,20.15
2019-02-28T22:45:10.445Z,20.27
2019-02-28T22:47:49.062Z,20.43
2019-02-28T22:50:31.966Z,20.45
2019-02-28T22:53:13.759Z,19.15
2019-02-28T22:55:52.440Z,20.25
2019-02-28T22:58:33.076Z,18.52
2019-02-28T23:01:14.729Z,18.60
2019-02-28T23:03:59.213Z,19.60
2019-02-28T23:06:42.074Z,18.90
2019-02-28T23:09:25.542Z,19.37
2019-02-28T23:12:06.051Z,19.70
2019-02-28T23:14:44.729Z,19.70
2019-02-28T23:17:22.999Z,19.40
2019-02-28T23:20:02.292Z,19.82
2019-02-28T23:22:39.784Z,19.23
2019-02-28T23:25:17.996Z,21.48
2019-02-28T23:28:11.343Z,19.92
2019-02-28T23:31:33.985Z,19.50
2019-02-28T23:34:25.025Z,19.67
2019-02-28T23:37:07.102Z,20.00
2019-02-28T23:39:51.723Z,19.82
2019-02-28T23:42:31.057Z,19.48
2019-02-28T23:45:10.673Z,19.23
2019-02-28T23:47:50.317Z,18.50
2019-02-28T23:50:30.937Z,19.23
2019-02-28T23:53:09.373Z,19.12
2019-02-28T23:55:48.825Z,18.98
2019-02-28T23:58:26.939Z,17.85
